Main page
METAR-TAF:

METAR-TAF

Airports :

Grand Bahama International Airport

Freeport, The Bahamas

latitude: 26-33N, longitude: 078-42W, elevation: 7 ft

Current weather observation

The report was made 30 minutes ago, at 19:00 UTC
Wind 5 mph from the North/Northeast
Temperature 66°F
Humidity 73%
Pressure 29.90 in. Hg
Visibility 6.2 miles or more
Few clouds at a height of 1800 ft
Broken clouds at a height of 3500 ft

METAR: MYGF 221900Z 02004KT 9999 FEW018 BKN035 19/14 A2990

Time: 14:30 (19:30 UTC)

Forecast

The report was made 2 hours and 0 minutes ago, at 17:30 UTC
Forecast valid from 22 at 18 UTC to 23 at 18 UTC
Wind 23 mph from the North/Northwest
Visibility 6.2 miles or more
Scattered clouds at a height of 1800 ft
Broken clouds at a height of 4000 ft
showers in vicinity
Becoming
from 23 at 01 UTC to 23 at 03 UTC
Scattered clouds at a height of 2500 ft

TAF: MYGF 221730Z 2218/2318 33020KT 9999 VCSH SCT018 BKN040 BECMG 2301/230303020KT SCT025

Weather observations and forecasts of more than 4000 airports (METAR and TAF reports).

The available stations are represented by yellow and red dots on the map.

Hover mouse over dot to see the name of the station.

Then click to see weather observations and forecasts.

To change the map : click on the green buttons with a black cross to zoom in, on the green button with a dash to zoom out, or on the green arrows for adjacent maps.


METAR-TAF: